West Jordan East
, West Jordan
Last Weather Update:08/14/2011 6:00:00 AM
Date
ETo
ETc
Rain
Irrigation
Req
Temp
Max
Temp
Min
Temp
Avg
Avg RH
Avg Wind
Avg Solar
inches
inches
incehs
inches
F
F
F
%
%
watts/m2
07/01/2011 0.24" 0.19" 0.00" 0.19" 82.0° 57.3° 70.8° 59.1% 2.9 MPH 351.0w/m2
07/02/2011 0.27" 0.22" 0.00" 0.22" 96.3° 56.7° 76.3° 55.2% 3.2 MPH 348.0w/m2
07/03/2011 0.34" 0.27" 0.00" 0.27" 98.6° 62.3° 83.9° 31.1% 6.6 MPH 335.0w/m2
07/04/2011 0.12" 0.10" 0.00" 0.10" 87.0° 72.3° 79.7° 41.3% 3.7 MPH 94.0w/m2
07/05/2011 0.22" 0.18" 0.00" 0.18" 85.7° 67.5° 76.9° 56.4% 4.1 MPH 263.0w/m2
07/06/2011 0.24" 0.20" 0.00" 0.20" 86.4° 61.2° 75.3° 59.1% 3.4 MPH 321.0w/m2
07/07/2011 0.14" 0.12" 0.00" 0.12" 83.5° 66.4° 74.0° 58.1% 2.9 MPH 168.0w/m2
07/08/2011 0.16" 0.13" 0.00" 0.13" 83.1° 64.7° 73.2° 67.8% 2.8 MPH 207.0w/m2
07/09/2011 0.24" 0.20" 0.00" 0.20" 89.0° 62.2° 74.2° 55.7% 4.7 MPH 298.0w/m2
07/10/2011 0.19" 0.16" 0.10" 0.08" 87.7° 60.3° 71.9° 65.1% 4.6 MPH 232.0w/m2
07/11/2011 0.27" 0.23" 0.00" 0.23" 89.4° 62.0° 74.3° 59.2% 5.3 MPH 323.0w/m2
07/12/2011 0.22" 0.18" 0.01" 0.17" 88.4° 66.8° 76.4° 54.6% 5.9 MPH 240.0w/m2
07/13/2011 0.27" 0.23" 0.00" 0.23" 89.0° 69.1° 77.3° 48.3% 7.1 MPH 313.0w/m2
07/14/2011 0.30" 0.26" 0.00" 0.26" 87.6° 65.5° 76.2° 40.7% 6.8 MPH 355.0w/m2
07/15/2011 0.30" 0.25" 0.00" 0.25" 88.7° 64.6° 77.0° 29.9% 5.4 MPH 355.0w/m2
07/16/2011 0.29" 0.25" 0.00" 0.25" 92.2° 56.3° 75.7° 36.1% 4.2 MPH 359.0w/m2
07/17/2011 0.28" 0.24" 0.00" 0.24" 95.7° 59.4° 78.4° 38.5% 4.4 MPH 312.0w/m2
07/18/2011 0.23" 0.20" 0.00" 0.20" 92.3° 75.3° 82.4° 45.5% 6.2 MPH 211.0w/m2
07/19/2011 0.23" 0.20" 0.00" 0.20" 91.7° 74.4° 81.0° 46.0% 7.0 MPH 210.0w/m2
07/20/2011 0.25" 0.22" 0.00" 0.22" 84.8° 58.3° 74.1° 47.7% 3.3 MPH 343.0w/m2
07/21/2011 0.26" 0.23" 0.00" 0.23" 92.1° 58.6° 75.6° 46.4% 3.1 MPH 345.0w/m2
07/22/2011 0.32" 0.28" 0.00" 0.28" 93.8° 59.5° 79.3° 28.7% 6.6 MPH 348.0w/m2
07/23/2011 0.24" 0.21" 0.00" 0.21" 87.2° 57.1° 74.3° 52.2% 2.7 MPH 337.0w/m2
07/24/2011 0.26" 0.23" 0.00" 0.23" 97.4° 58.7° 77.9° 47.6% 2.4 MPH 341.0w/m2
07/25/2011 0.17" 0.15" 0.02" 0.14" 91.7° 65.6° 77.4° 45.5% 3.7 MPH 180.0w/m2
07/26/2011 0.20" 0.18" 0.10" 0.10" 86.6° 67.9° 75.7° 59.8% 7.8 MPH 201.0w/m2
07/27/2011 0.23" 0.20" 0.05" 0.16" 87.0° 64.5° 74.7° 58.4% 5.4 MPH 261.0w/m2
07/28/2011 0.25" 0.22" 0.00" 0.22" 90.5° 61.8° 76.8° 51.1% 2.7 MPH 327.0w/m2
07/29/2011 0.22" 0.19" 0.03" 0.17" 95.4° 60.4° 77.9° 49.0% 1.9 MPH 296.0w/m2
07/30/2011 0.22" 0.20" 0.00" 0.20" 88.1° 66.3° 77.8° 50.4% 3.9 MPH 259.0w/m2
07/31/2011 0.16" 0.14" 0.12" 0.05" 88.8° 66.8° 76.0° 68.1% 4.3 MPH 186.0w/m2
Totals: 7.34" 6.25" 0.43" 5.90" 98.6° 56.3° 76.5° 50.1% 4.5 MPH 281.3w/m2